Time;durP1;ratioP1;P1;durP2;ratioP2;P2;SDS_P1;SDS_P2;PMS_P1;PMS_P2;Temp;Humidity;BMP_temperature;BMP_pressure;BME280_temperature;BME280_humidity;BME280_pressure;Samples;Min_cycle;Max_cycle;Signal;HPM_P1;HPM_P2
2022/09/23 00:02:22;;;;;;;1999.90;999.90;;;;;;;5.79;100.00;94318.38;6271294;22;20197;-58
2022/09/23 00:04:47;;;;;;;1999.90;999.90;;;;;;;5.75;100.00;94317.59;6270831;22;20169;-59
2022/09/23 00:07:13;;;;;;;1999.90;999.90;;;;;;;5.75;100.00;94306.78;6270876;22;20161;-58
2022/09/23 00:09:38;;;;;;;1999.90;999.90;;;;;;;5.71;100.00;94309.53;6245429;23;20168;-58
2022/09/23 00:12:04;;;;;;;1999.90;999.90;;;;;;;5.70;100.00;94309.91;6270799;22;20180;-57
2022/09/23 00:14:32;;;;;;;1999.90;999.90;;;;;;;5.66;100.00;94312.66;6245202;22;20153;-58
2022/09/23 00:16:58;;;;;;;1999.90;999.90;;;;;;;5.67;100.00;94310.69;6270847;22;20157;-57
2022/09/23 00:19:23;;;;;;;1999.90;999.90;;;;;;;5.63;100.00;94312.66;6270932;22;20172;-58
2022/09/23 00:21:48;;;;;;;1999.90;999.90;;;;;;;5.56;100.00;94310.78;6270936;22;20200;-58
2022/09/23 00:24:14;;;;;;;1999.90;999.90;;;;;;;5.53;100.00;94322.41;6270893;22;20165;-58
2022/09/23 00:26:40;;;;;;;1999.90;999.90;;;;;;;5.54;100.00;94317.78;6271443;22;20161;-60
2022/09/23 00:29:05;;;;;;;1999.90;999.90;;;;;;;5.54;100.00;94312.38;6244835;23;20445;-58
2022/09/23 00:31:31;;;;;;;1999.90;999.90;;;;;;;5.49;100.00;94318.19;6244995;23;20181;-58
2022/09/23 00:33:59;;;;;;;1999.90;999.90;;;;;;;5.45;100.00;94314.72;6271205;22;20222;-58
2022/09/23 00:36:26;;;;;;;1999.90;999.90;;;;;;;5.45;100.00;94318.22;6245580;22;20234;-59
2022/09/23 00:38:52;;;;;;;1999.90;999.90;;;;;;;5.38;100.00;94315.56;6245449;23;20157;-58
2022/09/23 00:41:18;;;;;;;1999.90;999.90;;;;;;;5.36;100.00;94311.69;6270813;22;20164;-60
2022/09/23 00:43:43;;;;;;;1999.90;999.90;;;;;;;5.32;100.00;94310.97;6244962;23;20550;-58
2022/09/23 00:46:15;;;;;;;1999.90;999.90;;;;;;;5.35;100.00;94315.59;6270701;22;20165;-58
2022/09/23 00:48:42;;;;;;;1999.90;999.90;;;;;;;5.31;100.00;94307.47;6270706;22;20176;-59
2022/09/23 00:51:12;;;;;;;1999.90;999.90;;;;;;;5.30;100.00;94321.41;6244870;23;20207;-58
2022/09/23 00:53:38;;;;;;;1999.90;999.90;;;;;;;5.24;100.00;94314.88;6270598;22;20165;-57
2022/09/23 00:56:08;;;;;;;1999.90;999.90;;;;;;;5.23;100.00;94313.31;6245125;23;20203;-58
2022/09/23 00:58:38;;;;;;;1999.90;999.90;;;;;;;5.19;100.00;94309.88;6270403;22;20165;-59
2022/09/23 01:01:04;;;;;;;1999.90;999.90;;;;;;;5.15;100.00;94315.31;6244831;23;20615;-58
2022/09/23 01:03:30;;;;;;;1999.90;999.90;;;;;;;5.15;100.00;94317.22;6244893;22;20170;-59
2022/09/23 01:05:56;;;;;;;1999.90;999.90;;;;;;;5.10;100.00;94304.88;6245297;22;20195;-58
2022/09/23 01:08:23;;;;;;;1999.90;999.90;;;;;;;5.10;100.00;94306.84;6244951;23;20173;-57
2022/09/23 01:11:13;;;;;;;1999.90;999.90;;;;;;;5.08;100.00;94306.44;6244842;22;20591;-58
2022/09/23 01:13:45;;;;;;;1999.90;999.90;;;;;;;5.04;100.00;94301.06;6270802;22;20162;-58
2022/09/23 01:16:28;;;;;;;1999.90;999.90;;;;;;;5.03;100.00;94298.75;6271114;22;20172;-58
2022/09/23 01:19:02;;;;;;;1999.90;999.90;;;;;;;4.95;100.00;94294.56;6245404;23;20161;-58
2022/09/23 01:21:38;;;;;;;1999.90;999.90;;;;;;;4.91;100.00;94296.47;6270347;22;20251;-59
2022/09/23 01:24:19;;;;;;;1999.90;999.90;;;;;;;4.93;100.00;94302.28;6270438;22;20161;-58
2022/09/23 01:27:01;;;;;;;1999.90;999.90;;;;;;;4.88;100.00;94303.44;6271451;22;20160;-58
2022/09/23 01:30:03;;;;;;;1999.90;999.90;;;;;;;4.85;100.00;94308.88;6246345;23;20169;-58
2022/09/23 01:32:47;;;;;;;1999.90;999.90;;;;;;;4.80;100.00;94306.56;6272195;22;20187;-57
2022/09/23 01:35:41;;;;;;;1999.90;999.90;;;;;;;4.78;100.00;94308.91;6272409;22;20173;-58
2022/09/23 01:38:19;;;;;;;1999.90;999.90;;;;;;;4.76;100.00;94301.19;6271648;22;20348;-58
2022/09/23 01:41:14;;;;;;;1999.90;999.90;;;;;;;4.71;100.00;94306.22;6271498;22;20476;-59
2022/09/23 01:44:15;;;;;;;1999.90;999.90;;;;;;;4.72;100.00;94300.44;6271602;22;20165;-58
2022/09/23 01:47:14;;;;;;;1999.90;999.90;;;;;;;4.70;100.00;94304.69;6220116;23;20201;-58
2022/09/23 01:49:42;;;;;;;1999.90;999.90;;;;;;;4.66;100.00;94306.66;6242112;23;20184;-59
2022/09/23 01:52:17;;;;;;;1999.90;999.90;;;;;;;4.63;100.00;94313.59;6271595;22;20268;-59
2022/09/23 01:55:18;;;;;;;1999.90;999.90;;;;;;;4.62;100.00;94312.06;6246005;23;20173;-57
2022/09/23 01:58:03;;;;;;;1999.90;999.90;;;;;;;4.59;100.00;94312.06;6271463;22;20249;-58
2022/09/23 02:00:33;;;;;;;1999.90;999.90;;;;;;;4.57;100.00;94314.38;6246397;23;20192;-57
2022/09/23 02:03:16;;;;;;;1999.90;999.90;;;;;;;4.49;100.00;94313.66;6271503;22;20219;-57
2022/09/23 02:05:50;;;;;;;1999.90;999.90;;;;;;;4.46;100.00;94313.66;6246596;23;20169;-59
2022/09/23 02:08:26;;;;;;;1999.90;999.90;;;;;;;4.37;100.00;94316.00;6246390;23;20168;-58
2022/09/23 02:10:57;;;;;;;1999.90;999.90;;;;;;;4.36;100.00;94319.84;6246482;23;20487;-57
2022/09/23 02:13:28;;;;;;;1999.90;999.90;;;;;;;4.38;100.00;94317.53;6246738;23;20187;-57
2022/09/23 02:15:58;;;;;;;1999.90;999.90;;;;;;;4.40;100.00;94326.03;6271263;22;20165;-58
2022/09/23 02:18:27;;;;;;;1999.90;999.90;;;;;;;4.40;100.00;94326.78;6271584;22;20606;-57
2022/09/23 02:20:59;;;;;;;1999.90;999.90;;;;;;;4.40;100.00;94331.44;6246108;22;20172;-58
2022/09/23 02:23:44;;;;;;;1999.90;999.90;;;;;;;4.40;100.00;94334.91;6272013;22;20214;-58
2022/09/23 02:26:18;;;;;;;1999.90;999.90;;;;;;;4.42;100.00;94346.09;6245744;23;20165;-59
2022/09/23 02:29:06;;;;;;;1999.90;999.90;;;;;;;4.41;100.00;94339.13;6271891;22;20552;-59
2022/09/23 02:31:38;;;;;;;1999.90;999.90;;;;;;;4.44;100.00;94337.59;6246352;23;20196;-58
2022/09/23 02:34:23;;;;;;;1999.90;999.90;;;;;;;4.44;100.00;94343.75;6246095;23;20247;-59
2022/09/23 02:37:10;;;;;;;1999.90;999.90;;;;;;;4.39;100.00;94346.88;6271072;22;20236;-59
2022/09/23 02:40:17;;;;;;;1999.90;999.90;;;;;;;4.37;100.00;94349.19;6246140;23;20176;-58
2022/09/23 02:43:11;;;;;;;1999.90;999.90;;;;;;;4.32;100.00;94346.88;6196045;23;20172;-58
2022/09/23 02:45:37;;;;;;;1999.90;999.90;;;;;;;4.34;100.00;94343.78;6246290;23;20172;-58
2022/09/23 02:48:12;;;;;;;1999.90;999.90;;;;;;;4.31;100.00;94339.16;6245709;22;20159;-58
2022/09/23 02:50:38;;;;;;;1999.90;999.90;;;;;;;4.29;100.00;94352.31;6246290;23;20250;-56
2022/09/23 02:53:04;;;;;;;1999.90;999.90;;;;;;;4.26;100.00;94342.28;6271677;22;20169;-58
2022/09/23 02:55:31;;;;;;;1999.90;999.90;;;;;;;4.25;100.00;94348.81;6245738;23;20176;-58
2022/09/23 02:58:00;;;;;;;1999.90;999.90;;;;;;;4.23;100.00;94349.22;6246092;22;20172;-57
2022/09/23 03:00:48;;;;;;;1999.90;999.90;;;;;;;4.23;100.00;94351.16;6246235;22;20177;-56
2022/09/23 03:03:32;;;;;;;1999.90;999.90;;;;;;;4.25;100.00;94352.28;6246067;23;20173;-55
2022/09/23 03:06:03;;;;;;;1999.90;999.90;;;;;;;4.24;100.00;94352.69;6271504;22;20192;-58
2022/09/23 03:08:41;;;;;;;1999.90;999.90;;;;;;;4.25;100.00;94351.50;6271418;22;20651;-60
2022/09/23 03:11:09;;;;;;;1999.90;999.90;;;;;;;4.22;100.00;94352.31;6246179;23;20181;-59
2022/09/23 03:13:34;;;;;;;1999.90;999.90;;;;;;;4.22;100.00;94350.38;6246119;22;20165;-59
2022/09/23 03:16:10;;;;;;;1999.90;999.90;;;;;;;4.20;100.00;94351.91;6270956;22;20176;-59
2022/09/23 03:19:21;;;;;;;1999.90;999.90;;;;;;;4.18;100.00;94351.56;6271056;22;20193;-59
2022/09/23 03:21:50;;;;;;;1999.90;999.90;;;;;;;4.14;100.00;94358.84;6240940;22;20223;-59
2022/09/23 03:24:20;;;;;;;1999.90;999.90;;;;;;;4.12;100.00;94359.28;6271703;22;20174;-58
2022/09/23 03:26:46;;;;;;;1999.90;999.90;;;;;;;4.07;100.00;94361.59;6245577;23;20165;-57
2022/09/23 03:29:15;;;;;;;1999.90;999.90;;;;;;;4.05;100.00;94358.50;6271683;22;20188;-57
2022/09/23 03:31:42;;;;;;;1999.90;999.90;;;;;;;4.06;100.00;94360.03;6245540;22;20185;-55
2022/09/23 03:34:19;;;;;;;1999.90;999.90;;;;;;;4.01;100.00;94363.13;6271554;22;20169;-57
2022/09/23 03:37:16;;;;;;;1999.90;999.90;;;;;;;3.96;100.00;94355.44;6245852;23;20160;-58
2022/09/23 03:40:05;;;;;;;1999.90;999.90;;;;;;;3.92;100.00;94365.44;6246143;23;20204;-58
2022/09/23 03:42:32;;;;;;;1999.90;999.90;;;;;;;3.90;100.00;94362.34;6244722;23;20252;-56
2022/09/23 03:45:00;;;;;;;1999.90;999.90;;;;;;;3.91;100.00;94355.78;6245471;22;20231;-55
2022/09/23 03:47:27;;;;;;;1999.90;999.90;;;;;;;3.89;100.00;94366.22;6245424;22;20161;-57
2022/09/23 03:49:53;;;;;;;1999.90;999.90;;;;;;;3.91;100.00;94369.28;6271020;22;20239;-57
2022/09/23 03:52:21;;;;;;;1999.90;999.90;;;;;;;3.89;100.00;94366.22;6245092;23;20185;-56
2022/09/23 03:54:47;;;;;;;1999.90;999.90;;;;;;;3.84;100.00;94364.66;6245771;22;20184;-56
2022/09/23 03:57:12;;;;;;;1999.90;999.90;;;;;;;3.85;100.00;94360.06;6245605;23;20169;-57
2022/09/23 03:59:38;;;;;;;1999.90;999.90;;;;;;;3.79;100.00;94362.34;6245379;22;20161;-56
2022/09/23 04:02:06;;;;;;;1999.90;999.90;;;;;;;3.78;100.00;94360.06;6245909;23;20165;-56
2022/09/23 04:04:33;;;;;;;1999.90;999.90;;;;;;;3.75;100.00;94360.81;6270504;22;20219;-55
2022/09/23 04:06:59;;;;;;;1999.90;999.90;;;;;;;3.77;100.00;94356.56;6245765;22;20215;-57
2022/09/23 04:09:25;;;;;;;1999.90;999.90;;;;;;;3.76;100.00;94359.66;6245499;23;20161;-55
2022/09/23 04:11:51;;;;;;;1999.90;999.90;;;;;;;3.68;100.00;94356.16;6245275;23;20216;-56
2022/09/23 04:14:19;;;;;;;1999.90;999.90;;;;;;;3.60;100.00;94360.00;6245199;23;20579;-56
2022/09/23 04:16:46;;;;;;;1999.90;999.90;;;;;;;3.60;100.00;94353.88;6245788;22;20168;-55
2022/09/23 04:19:12;;;;;;;1999.90;999.90;;;;;;;3.64;100.00;94349.25;6245356;23;20184;-56
2022/09/23 04:21:39;;;;;;;1999.90;999.90;;;;;;;3.68;100.00;94356.16;6245528;23;20164;-56
2022/09/23 04:24:05;;;;;;;1999.90;999.90;;;;;;;3.68;100.00;94355.41;6245512;23;20189;-57
2022/09/23 04:26:31;;;;;;;1999.90;999.90;;;;;;;3.66;100.00;94352.31;6245630;22;20157;-59
2022/09/23 04:28:57;;;;;;;1999.90;999.90;;;;;;;3.58;100.00;94350.75;6245432;23;20206;-58
2022/09/23 04:31:23;;;;;;;1999.90;999.90;;;;;;;3.63;100.00;94347.69;6271045;22;20181;-57
2022/09/23 04:33:52;;;;;;;1999.90;999.90;;;;;;;3.65;100.00;94346.16;6244758;23;20173;-58
2022/09/23 04:36:17;;;;;;;1999.90;999.90;;;;;;;3.62;100.00;94346.13;6244946;23;20216;-57
2022/09/23 04:38:44;;;;;;;1999.90;999.90;;;;;;;3.56;100.00;94353.09;6245022;23;20165;-56
2022/09/23 04:41:10;;;;;;;1999.90;999.90;;;;;;;3.51;100.00;94363.09;6270662;22;20161;-58
2022/09/23 04:43:35;;;;;;;1999.90;999.90;;;;;;;3.43;100.00;94353.44;6245171;22;20165;-56
2022/09/23 04:46:04;;;;;;;1999.90;999.90;;;;;;;3.40;100.00;94356.91;6270676;22;20216;-58
2022/09/23 04:48:29;;;;;;;1999.90;999.90;;;;;;;3.39;100.00;94358.06;6270154;22;20611;-57
2022/09/23 04:51:08;;;;;;;1999.90;999.90;;;;;;;3.37;100.00;94352.28;6244831;22;20196;-57
2022/09/23 04:53:39;;;;;;;1999.90;999.90;;;;;;;3.38;100.00;94358.44;6245414;23;20157;-57
2022/09/23 04:56:19;;;;;;;1999.90;999.90;;;;;;;3.40;100.00;94350.75;6245089;23;20177;-58
2022/09/23 04:58:45;;;;;;;1999.90;999.90;;;;;;;3.38;100.00;94353.81;6245520;23;20611;-59
2022/09/23 05:01:25;;;;;;;1999.90;999.90;;;;;;;3.41;100.00;94368.47;6271461;22;20157;-58
2022/09/23 05:03:53;;;;;;;1999.90;999.90;;;;;;;3.42;100.00;94357.31;6272555;22;20165;-59
2022/09/23 05:06:19;;;;;;;1999.90;999.90;;;;;;;3.48;100.00;94360.38;6246075;22;20172;-56
2022/09/23 05:08:48;;;;;;;1999.90;999.90;;;;;;;3.49;100.00;94368.09;6245935;22;20165;-58
2022/09/23 05:11:13;;;;;;;1999.90;999.90;;;;;;;3.60;100.00;94370.06;6246498;23;20537;-57
2022/09/23 05:13:38;;;;;;;1999.90;999.90;;;;;;;3.77;100.00;94370.06;6271661;22;20165;-57
2022/09/23 05:16:06;;;;;;;1999.90;999.90;;;;;;;4.11;100.00;94367.75;6271671;22;20234;-57
2022/09/23 05:18:39;;;;;;;1999.90;999.90;;;;;;;4.43;100.00;94361.16;6245889;23;20220;-59
2022/09/23 05:21:05;;;;;;;1999.90;999.90;;;;;;;4.91;100.00;94358.69;6246302;22;20169;-58
2022/09/23 05:23:31;;;;;;;1999.90;999.90;;;;;;;5.41;100.00;94346.47;6246189;22;20173;-57
2022/09/23 05:26:02;;;;;;;1999.90;999.90;;;;;;;5.92;100.00;94338.41;6246446;23;20165;-57
2022/09/23 05:28:31;;;;;;;1999.90;999.90;;;;;;;6.29;100.00;94319.50;6246450;23;20169;-57
2022/09/23 05:31:18;;;;;;;1999.90;999.90;;;;;;;6.84;100.00;94292.94;6246457;23;20166;-56
2022/09/23 05:33:47;;;;;;;1999.90;999.90;;;;;;;7.16;100.00;94282.44;6246309;23;20167;-57
2022/09/23 05:36:14;;;;;;;1999.90;999.90;;;;;;;7.26;100.00;94257.09;6246082;22;20175;-57
2022/09/23 05:38:39;;;;;;;1999.90;999.90;;;;;;;7.11;100.00;94217.78;6246042;22;20164;-58
2022/09/23 05:41:07;;;;;;;1999.90;999.90;;;;;;;7.11;100.00;94217.00;6245834;23;20319;-57
2022/09/23 05:43:34;;;;;;;1999.90;999.90;;;;;;;7.15;100.00;94213.06;6245805;22;20168;-59
2022/09/23 05:46:04;;;;;;;1999.90;999.90;;;;;;;7.17;100.00;94220.78;6246059;22;20220;-57
2022/09/23 05:48:32;;;;;;;1999.90;999.90;;;;;;;7.26;100.00;94218.31;6245435;22;20163;-59
2022/09/23 05:50:58;;;;;;;1999.90;999.90;;;;;;;7.52;100.00;94226.47;6246334;22;20187;-58
2022/09/23 05:53:24;;;;;;;1999.90;999.90;;;;;;;8.12;100.00;94218.03;6245754;23;20201;-59
2022/09/23 05:55:50;;;;;;;1999.90;999.90;;;;;;;8.74;100.00;94272.47;6246331;22;20172;-58
2022/09/23 05:58:15;;;;;;;1999.90;999.90;;;;;;;9.46;100.00;94330.50;6271567;22;20282;-59
2022/09/23 06:00:42;;;;;;;1999.90;999.90;;;;;;;10.14;100.00;94452.13;6271475;22;20183;-59
2022/09/23 06:03:19;;;;;;;1999.90;999.90;;;;;;;10.94;100.00;94533.38;6246061;23;20235;-59
2022/09/23 06:05:45;;;;;;;1999.90;999.90;;;;;;;11.50;100.00;94652.28;6245849;23;20166;-58
2022/09/23 06:08:11;;;;;;;1999.90;999.90;;;;;;;11.85;100.00;94732.75;6245882;22;20173;-59
2022/09/23 06:10:42;;;;;;;1999.90;999.90;;;;;;;12.28;100.00;94802.44;6271458;22;20211;-58
2022/09/23 06:13:07;;;;;;;1999.90;999.90;;;;;;;12.38;100.00;94842.47;6246247;23;20235;-59
2022/09/23 06:15:33;;;;;;;1999.90;999.90;;;;;;;12.81;100.00;94886.81;6245952;22;20173;-59
2022/09/23 06:17:59;;;;;;;1999.90;999.90;;;;;;;12.96;100.00;94914.63;6245841;22;20180;-59
2022/09/23 06:20:25;;;;;;;1999.90;999.90;;;;;;;13.62;100.00;94928.56;6245911;22;20172;-59
2022/09/23 06:22:50;;;;;;;1999.90;999.90;;;;;;;14.11;100.00;94968.38;6245772;22;20173;-59
2022/09/23 06:25:18;;;;;;;1999.90;999.90;;;;;;;14.54;100.00;95042.91;6271629;22;20528;-59
2022/09/23 06:27:44;;;;;;;1999.90;999.90;;;;;;;14.77;100.00;95284.50;6245943;22;20169;-58
2022/09/23 06:30:10;;;;;;;1999.90;999.90;;;;;;;15.54;100.00;95508.13;6271868;22;20215;-59
2022/09/23 06:32:36;;;;;;;1999.90;999.90;;;;;;;15.93;100.00;95483.09;6245478;23;20212;-59
2022/09/23 06:35:01;;;;;;;1999.90;999.90;;;;;;;15.94;100.00;95454.31;6271546;22;20165;-59
2022/09/23 06:37:27;;;;;;;1999.90;999.90;;;;;;;16.40;100.00;95434.47;6271604;22;20169;-59
2022/09/23 06:39:53;;;;;;;1999.90;999.90;;;;;;;16.29;100.00;95433.25;6271090;22;20161;-59
2022/09/23 06:42:18;;;;;;;1999.90;999.90;;;;;;;16.66;100.00;95420.72;6271939;22;20169;-58
2022/09/23 06:44:44;;;;;;;1999.90;999.90;;;;;;;17.28;100.00;95411.59;6271717;22;20169;-59
2022/09/23 06:47:09;;;;;;;1999.90;999.90;;;;;;;16.82;100.00;95410.34;6271220;22;20165;-59
2022/09/23 06:49:35;;;;;;;1999.90;999.90;;;;;;;17.75;100.00;95420.63;6271233;22;20169;-59
2022/09/23 06:52:00;;;;;;;1999.90;999.90;;;;;;;18.21;100.00;95439.09;6271271;22;20260;-59
2022/09/23 06:54:27;;;;;;;1999.90;999.90;;;;;;;18.10;100.00;95441.47;6245992;22;20161;-59
2022/09/23 06:56:53;;;;;;;1999.90;999.90;;;;;;;17.43;100.00;95437.53;6271276;22;20181;-61
2022/09/23 06:59:19;;;;;;;1999.90;999.90;;;;;;;17.17;100.00;95420.25;6245590;23;20165;-59
2022/09/23 07:01:46;;;;;;;1999.90;999.90;;;;;;;17.44;100.00;95436.34;6271629;22;20167;-58
2022/09/23 07:04:12;;;;;;;1999.90;999.90;;;;;;;17.91;100.00;95443.34;6271563;22;20185;-59
2022/09/23 07:06:37;;;;;;;1999.90;999.90;;;;;;;18.02;100.00;95445.69;6246031;23;20192;-59
2022/09/23 07:09:04;;;;;;;1999.90;999.90;;;;;;;18.27;100.00;95453.88;6245079;22;20635;-59
2022/09/23 07:11:30;;;;;;;1999.90;999.90;;;;;;;18.32;100.00;95453.31;6245552;22;20169;-59
2022/09/23 07:13:55;;;;;;;1999.90;999.90;;;;;;;18.69;97.38;95444.00;6245524;22;20173;-59
2022/09/23 07:16:21;;;;;;;1999.90;999.90;;;;;;;19.20;90.77;95458.97;6271688;22;20169;-60
2022/09/23 07:18:46;;;;;;;1999.90;999.90;;;;;;;18.75;91.79;95453.25;6245650;22;20176;-60
2022/09/23 07:21:15;;;;;;;1999.90;999.90;;;;;;;19.01;91.77;95454.56;6271781;22;20165;-59
2022/09/23 07:23:45;;;;;;;1999.90;999.90;;;;;;;18.90;91.76;95465.28;6244741;22;20176;-59
2022/09/23 07:26:12;;;;;;;1999.90;999.90;;;;;;;19.29;91.06;95461.78;6245904;22;20232;-59
2022/09/23 07:28:38;;;;;;;1999.90;999.90;;;;;;;19.73;87.72;95465.09;6270727;22;20165;-59
2022/09/23 07:31:06;;;;;;;1999.90;999.90;;;;;;;20.26;82.01;95464.38;6270902;22;20218;-59
2022/09/23 07:33:35;;;;;;;1999.90;999.90;;;;;;;21.54;74.53;95486.50;6271351;22;20236;-59
2022/09/23 07:36:06;;;;;;;1999.90;999.90;;;;;;;21.89;69.20;95481.94;6270922;22;20184;-59
2022/09/23 07:38:31;;;;;;;1999.90;999.90;;;;;;;21.78;71.23;95481.72;6246175;23;20188;-59
2022/09/23 07:41:02;;;;;;;1999.90;999.90;;;;;;;22.90;63.13;95488.19;6271205;22;20165;-59
2022/09/23 07:43:31;;;;;;;1999.90;999.90;;;;;;;22.73;63.71;95490.69;6245644;22;20161;-59
2022/09/23 07:45:57;;;;;;;1999.90;999.90;;;;;;;23.27;59.78;95497.72;6270712;22;20193;-58
2022/09/23 07:48:22;;;;;;;1999.90;999.90;;;;;;;22.56;62.40;95497.19;6245842;22;20167;-56
2022/09/23 07:50:47;;;;;;;1999.90;999.90;;;;;;;22.15;65.30;95499.69;6270883;22;20256;-59
2022/09/23 07:53:16;;;;;;;1999.90;999.90;;;;;;;22.14;65.03;95500.16;6271318;22;20195;-59
2022/09/23 07:55:41;;;;;;;1999.90;999.90;;;;;;;22.15;66.54;95499.69;6271722;22;20169;-59
2022/09/23 07:58:06;;;;;;;1999.90;999.90;;;;;;;23.28;60.96;95510.38;6271461;22;20168;-59
2022/09/23 08:00:32;;;;;;;1999.90;999.90;;;;;;;23.76;59.32;95506.03;6271011;22;20172;-59
2022/09/23 08:02:57;;;;;;;1999.90;999.90;;;;;;;24.17;57.14;95502.03;6271385;22;20172;-59
2022/09/23 08:05:24;;;;;;;1999.90;999.90;;;;;;;24.96;52.98;95506.75;6245425;23;20201;-59
2022/09/23 08:07:50;;;;;;;1999.90;999.90;;;;;;;25.51;51.08;95497.31;6245329;22;20165;-60
2022/09/23 08:10:19;;;;;;;1999.90;999.90;;;;;;;25.80;49.90;95511.75;6271578;22;20167;-59
2022/09/23 08:12:45;;;;;;;1999.90;999.90;;;;;;;25.84;49.89;95505.91;6245966;23;20192;-58
2022/09/23 08:15:11;;;;;;;1999.90;999.90;;;;;;;26.28;48.01;95517.38;6270792;22;20177;-59
2022/09/23 08:17:36;;;;;;;1999.90;999.90;;;;;;;25.93;47.11;95509.28;6245715;23;20176;-57
2022/09/23 08:20:01;;;;;;;1999.90;999.90;;;;;;;25.47;50.46;95508.72;6271293;22;20168;-56
2022/09/23 08:22:27;;;;;;;1999.90;999.90;;;;;;;25.93;50.85;95509.28;6271349;22;20169;-56
2022/09/23 08:24:52;;;;;;;1999.90;999.90;;;;;;;25.86;49.03;95509.75;6270658;22;20256;-57
2022/09/23 08:27:17;;;;;;;1999.90;999.90;;;;;;;26.26;47.95;95509.47;6270618;22;20168;-56
2022/09/23 08:29:43;;;;;;;1999.90;999.90;;;;;;;26.38;47.52;95518.69;6271042;22;20177;-57
2022/09/23 08:32:08;;;;;;;1999.90;999.90;;;;;;;25.93;47.76;95519.72;6270456;22;20216;-57
2022/09/23 08:34:34;;;;;;;1999.90;999.90;;;;;;;25.58;48.78;95510.84;6270648;22;20180;-57
2022/09/23 08:37:00;;;;;;;1999.90;999.90;;;;;;;24.97;50.76;95513.88;6270554;22;20183;-59
2022/09/23 08:39:25;;;;;;;1999.90;999.90;;;;;;;25.16;51.49;95503.09;6270750;22;20252;-59
2022/09/23 08:42:15;;;;;;;1999.90;999.90;;;;;;;25.27;50.99;95508.78;6270601;22;20161;-57
2022/09/23 08:44:53;;;;;;;1999.90;999.90;;;;;;;25.42;50.67;95506.63;6245434;23;20169;-56
2022/09/23 08:47:38;;;;;;;1999.90;999.90;;;;;;;25.29;52.31;95500.72;6245525;22;20184;-54
2022/09/23 08:50:16;;;;;;;1999.90;999.90;;;;;;;25.74;51.30;95496.94;6244556;23;20180;-56
2022/09/23 08:52:54;;;;;;;1999.90;999.90;;;;;;;26.34;47.26;95499.34;6245284;23;20180;-54
2022/09/23 08:55:28;;;;;;;1999.90;999.90;;;;;;;26.61;46.54;95507.09;6271184;22;20164;-55
2022/09/23 08:58:20;;;;;;;1999.90;999.90;;;;;;;26.55;48.83;95497.84;6245602;23;20173;-59
2022/09/23 09:01:10;;;;;;;1999.90;999.90;;;;;;;26.60;47.45;95493.56;6270512;22;20165;-57
2022/09/23 09:03:44;;;;;;;1999.90;999.90;;;;;;;26.92;46.19;95498.50;6184153;23;20169;-56
2022/09/23 09:06:21;;;;;;;1999.90;999.90;;;;;;;26.25;47.45;95495.97;6244953;23;20165;-55
2022/09/23 09:08:55;;;;;;;1999.90;999.90;;;;;;;26.64;46.63;95497.66;6271148;22;20161;-54
2022/09/23 09:11:27;;;;;;;1999.90;999.90;;;;;;;26.45;47.53;95493.78;6245371;23;20185;-52
2022/09/23 09:14:03;;;;;;;1999.90;999.90;;;;;;;26.77;44.88;95500.75;6245414;23;20161;-53
2022/09/23 09:16:56;;;;;;;1999.90;999.90;;;;;;;26.64;46.91;95496.88;6245050;23;20172;-55
2022/09/23 09:19:55;;;;;;;1999.90;999.90;;;;;;;27.32;46.41;95486.81;6270302;22;20169;-51
2022/09/23 09:22:36;;;;;;;1999.90;999.90;;;;;;;27.85;43.22;95488.56;6263152;22;20263;-54
2022/09/23 09:25:16;;;;;;;1999.90;999.90;;;;;;;27.18;45.46;95482.19;6270946;22;20176;-50
2022/09/23 09:27:42;;;;;;;1999.90;999.90;;;;;;;27.71;44.19;95484.72;6245181;23;20220;-52
2022/09/23 09:30:13;;;;;;;1999.90;999.90;;;;;;;26.70;47.38;95476.00;6244688;22;20212;-52
2022/09/23 09:32:46;;;;;;;1999.90;999.90;;;;;;;27.26;46.91;95465.63;6244962;23;20185;-51
2022/09/23 09:35:32;;;;;;;1999.90;999.90;;;;;;;27.14;46.39;95476.09;6270673;22;20187;-52
2022/09/23 09:38:00;;;;;;;1999.90;999.90;;;;;;;27.16;48.11;95467.91;6270712;22;20236;-53
2022/09/23 09:40:26;;;;;;;1999.90;999.90;;;;;;;27.50;47.62;95466.63;6270657;22;20177;-53
2022/09/23 09:42:51;;;;;;;1999.90;999.90;;;;;;;26.41;49.95;95468.03;6270001;22;20171;-56
2022/09/23 09:45:34;;;;;;;1999.90;999.90;;;;;;;27.22;47.96;95454.69;6270416;22;20187;-55
2022/09/23 09:48:06;;;;;;;1999.90;999.90;;;;;;;27.16;48.43;95461.53;6245341;23;20172;-55
2022/09/23 09:50:51;;;;;;;1999.90;999.90;;;;;;;26.23;51.37;95448.88;6271568;22;20196;-57
2022/09/23 09:53:24;;;;;;;1999.90;999.90;;;;;;;26.81;51.51;95453.59;6244904;23;20430;-54
2022/09/23 09:56:06;;;;;;;1999.90;999.90;;;;;;;27.92;46.60;95457.91;6245977;23;20153;-57
2022/09/23 09:58:45;;;;;;;1999.90;999.90;;;;;;;27.67;47.09;95455.38;6246295;23;20172;-59
2022/09/23 10:01:27;;;;;;;1999.90;999.90;;;;;;;28.02;45.52;95447.94;6271825;22;20165;-55
2022/09/23 10:03:55;;;;;;;1999.90;999.90;;;;;;;26.88;47.18;95446.75;6246153;23;20191;-57
2022/09/23 10:06:26;;;;;;;1999.90;999.90;;;;;;;26.99;48.92;95436.28;6246290;23;20170;-55
2022/09/23 10:09:07;;;;;;;1999.90;999.90;;;;;;;27.83;47.04;95441.31;6245870;23;20213;-57
2022/09/23 10:11:33;;;;;;;1999.90;999.90;;;;;;;26.67;50.81;95432.19;6271331;22;20177;-56
2022/09/23 10:14:11;;;;;;;1999.90;999.90;;;;;;;27.85;49.40;95430.34;6245419;23;20218;-56
2022/09/23 10:16:37;;;;;;;1999.90;999.90;;;;;;;28.24;45.40;95433.00;6271153;22;20230;-56
2022/09/23 10:19:10;;;;;;;1999.90;999.90;;;;;;;28.48;46.05;95438.03;6245632;23;20252;-56
2022/09/23 10:21:37;;;;;;;1999.90;999.90;;;;;;;27.94;45.88;95430.06;6246052;23;20248;-56
2022/09/23 10:24:07;;;;;;;1999.90;999.90;;;;;;;27.22;48.71;95432.25;6271435;22;20162;-56
2022/09/23 10:26:49;;;;;;;1999.90;999.90;;;;;;;28.19;46.94;95428.19;6271320;22;20165;-57
2022/09/23 10:29:39;;;;;;;1999.90;999.90;;;;;;;27.85;47.46;95427.56;6245882;23;20175;-58
2022/09/23 10:32:16;;;;;;;1999.90;999.90;;;;;;;27.33;46.57;95432.22;6245923;23;20216;-57
2022/09/23 10:34:44;;;;;;;1999.90;999.90;;;;;;;26.83;49.49;95423.03;6271864;22;20169;-58
2022/09/23 10:37:28;;;;;;;1999.90;999.90;;;;;;;27.01;48.61;95422.53;6244776;23;20192;-59
2022/09/23 10:48:41;;;;;;;1999.90;999.90;;;;;;;25.98;49.02;95427.38;6247259;23;20169;-57
2022/09/23 10:51:23;;;;;;;1999.90;999.90;;;;;;;26.09;50.12;95415.44;6270607;22;20181;-59
2022/09/23 10:54:13;;;;;;;1999.90;999.90;;;;;;;25.89;50.71;95413.56;6245943;23;20171;-59
2022/09/23 10:56:47;;;;;;;1999.90;999.90;;;;;;;25.83;49.89;95410.00;6246067;23;20171;-58
2022/09/23 10:59:42;;;;;;;1999.90;999.90;;;;;;;25.37;50.94;95406.69;6245518;23;20187;-59
2022/09/23 11:02:23;;;;;;;1999.90;999.90;;;;;;;26.03;48.93;95404.22;6271550;22;20168;-58
2022/09/23 11:05:18;;;;;;;1999.90;999.90;;;;;;;25.94;49.40;95404.44;6246171;23;20161;-59
2022/09/23 11:08:12;;;;;;;1999.90;999.90;;;;;;;25.08;52.75;95398.56;6246298;23;20166;-56
2022/09/23 11:10:54;;;;;;;1999.90;999.90;;;;;;;23.29;59.08;95397.63;6271467;22;20165;-58
2022/09/23 11:13:36;;;;;;;1999.90;999.90;;;;;;;23.31;60.95;95398.66;6270974;22;20267;-57
2022/09/23 11:16:16;;;;;;;1999.90;999.90;;;;;;;23.99;59.20;95385.09;6271536;22;20185;-58
2022/09/23 11:19:20;;;;;;;1999.90;999.90;;;;;;;23.66;61.49;95393.03;6271134;22;20165;-59
2022/09/23 11:21:56;;;;;;;1999.90;999.90;;;;;;;22.76;62.70;95388.69;6271772;22;20173;-58
2022/09/23 11:25:03;;;;;;;1999.90;999.90;;;;;;;22.30;67.38;95385.63;6271140;22;20165;-58